sensor_id;sensor_type;location;lat;lon;timestamp;pressure;altitude;pressure_sealevel;temperature;humidity
5298;BME280;14738;42.668;23.250;2023-11-19T00:02:19;48592.81;;;-141.90;54.94
5298;BME280;14738;42.668;23.250;2023-11-19T00:04:44;48572.94;;;-141.90;55.38
5298;BME280;14738;42.668;23.250;2023-11-19T00:07:10;48570.97;;;-141.90;55.80
5298;BME280;14738;42.668;23.250;2023-11-19T00:09:37;48606.69;;;-141.90;55.37
5298;BME280;14738;42.668;23.250;2023-11-19T00:12:06;48586.84;;;-141.90;55.43
5298;BME280;14738;42.668;23.250;2023-11-19T00:14:33;48551.09;;;-141.90;55.16
5298;BME280;14738;42.668;23.250;2023-11-19T00:16:59;48547.13;;;-141.90;54.82
5298;BME280;14738;42.668;23.250;2023-11-19T00:19:25;48559.06;;;-141.90;54.53
5298;BME280;14738;42.668;23.250;2023-11-19T00:21:51;48567.00;;;-141.90;55.41
5298;BME280;14738;42.668;23.250;2023-11-19T00:24:17;48580.88;;;-141.90;54.72
5298;BME280;14738;42.668;23.250;2023-11-19T00:26:43;48600.75;;;-141.90;54.89
5298;BME280;14738;42.668;23.250;2023-11-19T00:29:08;48570.97;;;-141.90;55.29
5298;BME280;14738;42.668;23.250;2023-11-19T00:31:34;48563.03;;;-141.90;55.29
5298;BME280;14738;42.668;23.250;2023-11-19T00:33:59;48533.25;;;-141.90;55.01
5298;BME280;14738;42.668;23.250;2023-11-19T00:36:25;48563.03;;;-141.90;55.11
5298;BME280;14738;42.668;23.250;2023-11-19T00:38:51;48580.88;;;-141.90;55.43
5298;BME280;14738;42.668;23.250;2023-11-19T00:41:18;48553.09;;;-141.90;55.04
5298;BME280;14738;42.668;23.250;2023-11-19T00:43:43;48578.91;;;-141.90;54.97
5298;BME280;14738;42.668;23.250;2023-11-19T00:46:09;48551.09;;;-141.90;55.54
5298;BME280;14738;42.668;23.250;2023-11-19T00:48:36;48568.97;;;-141.90;55.60
5298;BME280;14738;42.668;23.250;2023-11-19T00:51:01;48584.84;;;-141.90;55.58
5298;BME280;14738;42.668;23.250;2023-11-19T00:53:26;48541.19;;;-141.90;55.09
5298;BME280;14738;42.668;23.250;2023-11-19T00:55:52;48563.03;;;-141.90;55.06
5298;BME280;14738;42.668;23.250;2023-11-19T00:58:17;48553.09;;;-141.90;55.31
5298;BME280;14738;42.668;23.250;2023-11-19T01:00:43;48576.91;;;-141.90;55.28
5298;BME280;14738;42.668;23.250;2023-11-19T01:03:10;48570.97;;;-141.90;55.37
5298;BME280;14738;42.668;23.250;2023-11-19T01:05:35;48547.13;;;-141.90;55.60
5298;BME280;14738;42.668;23.250;2023-11-19T01:08:00;48584.84;;;-141.90;55.61
5298;BME280;14738;42.668;23.250;2023-11-19T01:10:26;48580.88;;;-141.90;55.39
5298;BME280;14738;42.668;23.250;2023-11-19T01:12:51;48580.88;;;-141.90;55.38
5298;BME280;14738;42.668;23.250;2023-11-19T01:15:17;48584.84;;;-141.90;55.28
5298;BME280;14738;42.668;23.250;2023-11-19T01:17:44;48547.13;;;-141.90;55.40
5298;BME280;14738;42.668;23.250;2023-11-19T01:20:09;48580.88;;;-141.90;55.73
5298;BME280;14738;42.668;23.250;2023-11-19T01:22:38;48545.16;;;-141.90;55.37
5298;BME280;14738;42.668;23.250;2023-11-19T01:25:04;48580.88;;;-141.90;55.07
5298;BME280;14738;42.668;23.250;2023-11-19T01:27:30;48588.84;;;-141.90;55.21
5298;BME280;14738;42.668;23.250;2023-11-19T01:29:56;48557.06;;;-141.90;55.19
5298;BME280;14738;42.668;23.250;2023-11-19T01:32:21;48565.00;;;-141.90;55.58
5298;BME280;14738;42.668;23.250;2023-11-19T01:34:49;48572.94;;;-141.90;55.10
5298;BME280;14738;42.668;23.250;2023-11-19T01:37:14;48561.03;;;-141.90;55.01
5298;BME280;14738;42.668;23.250;2023-11-19T01:39:40;48580.88;;;-141.90;54.92
5298;BME280;14738;42.668;23.250;2023-11-19T01:42:05;48574.94;;;-141.90;54.81
5298;BME280;14738;42.668;23.250;2023-11-19T01:44:31;48576.91;;;-141.90;55.21
5298;BME280;14738;42.668;23.250;2023-11-19T01:46:57;48551.09;;;-141.90;55.74
5298;BME280;14738;42.668;23.250;2023-11-19T01:49:23;48561.03;;;-141.90;55.64
5298;BME280;14738;42.668;23.250;2023-11-19T01:51:49;48574.94;;;-141.90;55.60
5298;BME280;14738;42.668;23.250;2023-11-19T01:54:14;48596.78;;;-141.90;55.30
5298;BME280;14738;42.668;23.250;2023-11-19T01:56:41;48551.09;;;-141.90;55.23
5298;BME280;14738;42.668;23.250;2023-11-19T01:59:07;48582.88;;;-141.90;55.21
5298;BME280;14738;42.668;23.250;2023-11-19T02:01:35;48570.97;;;-141.90;54.49
5298;BME280;14738;42.668;23.250;2023-11-19T02:04:06;48565.00;;;-141.90;54.79
5298;BME280;14738;42.668;23.250;2023-11-19T02:06:33;48590.81;;;-141.90;54.14
5298;BME280;14738;42.668;23.250;2023-11-19T02:08:59;48568.97;;;-141.90;54.10
5298;BME280;14738;42.668;23.250;2023-11-19T02:11:25;48578.91;;;-141.90;54.72
5298;BME280;14738;42.668;23.250;2023-11-19T02:13:57;48584.84;;;-141.90;54.40
5298;BME280;14738;42.668;23.250;2023-11-19T02:16:22;48557.06;;;-141.90;54.62
5298;BME280;14738;42.668;23.250;2023-11-19T02:18:48;48557.06;;;-141.90;54.23
5298;BME280;14738;42.668;23.250;2023-11-19T02:21:13;48602.72;;;-141.90;54.65
5298;BME280;14738;42.668;23.250;2023-11-19T02:23:40;48572.94;;;-141.90;54.18
5298;BME280;14738;42.668;23.250;2023-11-19T02:28:35;48572.94;;;-141.90;54.65
5298;BME280;14738;42.668;23.250;2023-11-19T02:31:01;48580.88;;;-141.90;55.06
5298;BME280;14738;42.668;23.250;2023-11-19T02:33:26;48580.88;;;-141.90;55.16
5298;BME280;14738;42.668;23.250;2023-11-19T02:35:52;48557.06;;;-141.90;55.38
5298;BME280;14738;42.668;23.250;2023-11-19T02:38:17;48588.84;;;-141.90;55.63
5298;BME280;14738;42.668;23.250;2023-11-19T02:40:42;48588.84;;;-141.90;56.65
5298;BME280;14738;42.668;23.250;2023-11-19T02:43:08;48584.84;;;-141.90;56.88
5298;BME280;14738;42.668;23.250;2023-11-19T02:45:34;48590.81;;;-141.90;56.30
5298;BME280;14738;42.668;23.250;2023-11-19T02:47:59;48576.91;;;-141.90;56.71
5298;BME280;14738;42.668;23.250;2023-11-19T02:50:26;48588.84;;;-141.90;57.39
5298;BME280;14738;42.668;23.250;2023-11-19T02:52:54;48588.84;;;-141.90;57.08
5298;BME280;14738;42.668;23.250;2023-11-19T02:55:21;48586.84;;;-141.90;56.91
5298;BME280;14738;42.668;23.250;2023-11-19T02:57:49;48574.94;;;-141.90;56.89
5298;BME280;14738;42.668;23.250;2023-11-19T03:02:40;48608.69;;;-141.90;57.24
5298;BME280;14738;42.668;23.250;2023-11-19T03:05:15;48553.09;;;-141.90;56.63
5298;BME280;14738;42.668;23.250;2023-11-19T03:07:44;48570.97;;;-141.90;56.24
5298;BME280;14738;42.668;23.250;2023-11-19T03:10:10;48576.91;;;-141.90;57.14
5298;BME280;14738;42.668;23.250;2023-11-19T03:12:39;48582.88;;;-141.90;56.73
5298;BME280;14738;42.668;23.250;2023-11-19T03:15:05;48588.84;;;-141.90;57.08
5298;BME280;14738;42.668;23.250;2023-11-19T03:17:31;48594.78;;;-141.90;56.92
5298;BME280;14738;42.668;23.250;2023-11-19T03:19:56;48568.97;;;-141.90;56.65
5298;BME280;14738;42.668;23.250;2023-11-19T03:22:21;48592.81;;;-141.90;56.27
5298;BME280;14738;42.668;23.250;2023-11-19T03:24:47;48565.00;;;-141.90;56.19
5298;BME280;14738;42.668;23.250;2023-11-19T03:27:12;48559.06;;;-141.90;56.48
5298;BME280;14738;42.668;23.250;2023-11-19T03:29:38;48590.81;;;-141.90;56.39
5298;BME280;14738;42.668;23.250;2023-11-19T03:32:04;48580.88;;;-141.90;56.26
5298;BME280;14738;42.668;23.250;2023-11-19T03:34:29;48584.84;;;-141.90;56.24
5298;BME280;14738;42.668;23.250;2023-11-19T03:36:55;48578.91;;;-141.90;56.75
5298;BME280;14738;42.668;23.250;2023-11-19T03:39:21;48547.13;;;-141.90;56.25
5298;BME280;14738;42.668;23.250;2023-11-19T03:41:50;48576.91;;;-141.90;56.31
5298;BME280;14738;42.668;23.250;2023-11-19T03:44:15;48570.97;;;-141.90;56.10
5298;BME280;14738;42.668;23.250;2023-11-19T03:46:40;48584.84;;;-141.90;56.14
5298;BME280;14738;42.668;23.250;2023-11-19T03:49:06;48565.00;;;-141.90;55.86
5298;BME280;14738;42.668;23.250;2023-11-19T03:51:32;48561.03;;;-141.90;55.62
5298;BME280;14738;42.668;23.250;2023-11-19T03:53:57;48549.13;;;-141.90;55.32
5298;BME280;14738;42.668;23.250;2023-11-19T03:56:23;48561.03;;;-141.90;55.07
5298;BME280;14738;42.668;23.250;2023-11-19T03:58:48;48586.84;;;-141.90;54.85
5298;BME280;14738;42.668;23.250;2023-11-19T04:01:14;48565.00;;;-141.90;55.12
5298;BME280;14738;42.668;23.250;2023-11-19T04:03:39;48596.78;;;-141.90;55.06
5298;BME280;14738;42.668;23.250;2023-11-19T04:06:05;48561.03;;;-141.90;55.54
5298;BME280;14738;42.668;23.250;2023-11-19T04:08:30;48582.88;;;-141.90;55.71
5298;BME280;14738;42.668;23.250;2023-11-19T04:10:56;48586.84;;;-141.90;55.63
5298;BME280;14738;42.668;23.250;2023-11-19T04:13:21;48572.94;;;-141.90;55.24
5298;BME280;14738;42.668;23.250;2023-11-19T04:15:49;48576.91;;;-141.90;55.00
5298;BME280;14738;42.668;23.250;2023-11-19T04:18:14;48592.81;;;-141.90;55.20
5298;BME280;14738;42.668;23.250;2023-11-19T04:20:39;48557.06;;;-141.90;54.71
5298;BME280;14738;42.668;23.250;2023-11-19T04:23:07;48572.94;;;-141.90;54.47
5298;BME280;14738;42.668;23.250;2023-11-19T04:25:33;48563.03;;;-141.90;54.56
5298;BME280;14738;42.668;23.250;2023-11-19T04:27:58;48580.88;;;-141.90;54.45
5298;BME280;14738;42.668;23.250;2023-11-19T04:30:24;48580.88;;;-141.90;54.11
5298;BME280;14738;42.668;23.250;2023-11-19T04:32:49;48592.81;;;-141.90;53.86
5298;BME280;14738;42.668;23.250;2023-11-19T04:35:14;48578.91;;;-141.90;54.35
5298;BME280;14738;42.668;23.250;2023-11-19T04:37:41;48574.94;;;-141.90;54.57
5298;BME280;14738;42.668;23.250;2023-11-19T04:40:07;48592.81;;;-141.90;53.81
5298;BME280;14738;42.668;23.250;2023-11-19T04:44:57;48572.94;;;-141.90;53.50
5298;BME280;14738;42.668;23.250;2023-11-19T04:47:23;48592.81;;;-141.90;54.05
5298;BME280;14738;42.668;23.250;2023-11-19T04:49:48;48555.09;;;-141.90;54.00
5298;BME280;14738;42.668;23.250;2023-11-19T04:52:16;48563.03;;;-141.90;54.33
5298;BME280;14738;42.668;23.250;2023-11-19T04:54:42;48561.03;;;-141.90;54.18
5298;BME280;14738;42.668;23.250;2023-11-19T04:57:09;48596.78;;;-141.90;54.72
5298;BME280;14738;42.668;23.250;2023-11-19T04:59:38;48572.94;;;-141.90;53.59
5298;BME280;14738;42.668;23.250;2023-11-19T05:02:04;48594.78;;;-141.90;54.82
5298;BME280;14738;42.668;23.250;2023-11-19T05:04:30;48555.09;;;-141.90;54.18
5298;BME280;14738;42.668;23.250;2023-11-19T05:06:55;48561.03;;;-141.90;54.18
5298;BME280;14738;42.668;23.250;2023-11-19T05:09:20;48576.91;;;-141.90;54.27
5298;BME280;14738;42.668;23.250;2023-11-19T05:11:46;48553.09;;;-141.90;54.17
5298;BME280;14738;42.668;23.250;2023-11-19T05:14:11;48553.09;;;-141.90;54.60
5298;BME280;14738;42.668;23.250;2023-11-19T05:16:39;48572.94;;;-141.90;54.27
5298;BME280;14738;42.668;23.250;2023-11-19T05:19:05;48572.94;;;-141.90;54.49
5298;BME280;14738;42.668;23.250;2023-11-19T05:21:30;48572.94;;;-141.90;54.04
5298;BME280;14738;42.668;23.250;2023-11-19T05:23:55;48572.94;;;-141.90;54.34
5298;BME280;14738;42.668;23.250;2023-11-19T05:26:23;48600.75;;;-141.90;54.48
5298;BME280;14738;42.668;23.250;2023-11-19T05:28:49;48584.84;;;-141.90;54.07
5298;BME280;14738;42.668;23.250;2023-11-19T05:31:16;48604.72;;;-141.90;53.93
5298;BME280;14738;42.668;23.250;2023-11-19T05:33:42;48584.84;;;-141.90;53.94
5298;BME280;14738;42.668;23.250;2023-11-19T05:36:08;48563.03;;;-141.90;54.08
5298;BME280;14738;42.668;23.250;2023-11-19T05:38:34;48578.91;;;-141.90;54.03
5298;BME280;14738;42.668;23.250;2023-11-19T05:41:00;48584.84;;;-141.90;54.13
5298;BME280;14738;42.668;23.250;2023-11-19T05:43:25;48568.97;;;-141.90;53.25
5298;BME280;14738;42.668;23.250;2023-11-19T05:45:51;48580.88;;;-141.90;53.37
5298;BME280;14738;42.668;23.250;2023-11-19T05:48:16;48574.94;;;-141.90;53.88
5298;BME280;14738;42.668;23.250;2023-11-19T05:50:42;48590.81;;;-141.90;53.73
5298;BME280;14738;42.668;23.250;2023-11-19T05:53:09;48576.91;;;-141.90;53.83
5298;BME280;14738;42.668;23.250;2023-11-19T05:55:38;48545.16;;;-141.90;53.70
5298;BME280;14738;42.668;23.250;2023-11-19T05:58:25;48590.81;;;-141.90;54.33
5298;BME280;14738;42.668;23.250;2023-11-19T06:00:52;48531.25;;;-141.90;54.60
5298;BME280;14738;42.668;23.250;2023-11-19T06:03:17;48553.09;;;-141.90;54.49
5298;BME280;14738;42.668;23.250;2023-11-19T06:05:46;48565.00;;;-141.90;54.25
5298;BME280;14738;42.668;23.250;2023-11-19T06:08:12;48596.78;;;-141.90;54.23
5298;BME280;14738;42.668;23.250;2023-11-19T06:10:42;48572.94;;;-141.90;54.08
5298;BME280;14738;42.668;23.250;2023-11-19T06:13:09;48608.69;;;-141.90;54.01
5298;BME280;14738;42.668;23.250;2023-11-19T06:15:36;48588.84;;;-141.90;54.21
5298;BME280;14738;42.668;23.250;2023-11-19T06:18:02;48557.06;;;-141.90;54.06
5298;BME280;14738;42.668;23.250;2023-11-19T06:20:29;48584.84;;;-141.90;54.17
5298;BME280;14738;42.668;23.250;2023-11-19T06:22:55;48578.91;;;-141.90;54.18
5298;BME280;14738;42.668;23.250;2023-11-19T06:25:22;48600.75;;;-141.90;53.93
5298;BME280;14738;42.668;23.250;2023-11-19T06:27:47;48592.81;;;-141.90;54.35
5298;BME280;14738;42.668;23.250;2023-11-19T06:30:12;48598.75;;;-141.90;54.33
5298;BME280;14738;42.668;23.250;2023-11-19T06:32:38;48576.91;;;-141.90;53.70
5298;BME280;14738;42.668;23.250;2023-11-19T06:35:04;48559.06;;;-141.90;53.62
5298;BME280;14738;42.668;23.250;2023-11-19T06:37:30;48576.91;;;-141.90;53.64
5298;BME280;14738;42.668;23.250;2023-11-19T06:39:55;48574.94;;;-141.90;53.55
5298;BME280;14738;42.668;23.250;2023-11-19T06:42:21;48584.84;;;-141.90;53.57
5298;BME280;14738;42.668;23.250;2023-11-19T06:44:46;48561.03;;;-141.90;53.42
5298;BME280;14738;42.668;23.250;2023-11-19T06:47:11;48584.84;;;-141.90;52.72
5298;BME280;14738;42.668;23.250;2023-11-19T06:49:37;48557.06;;;-141.90;52.91
5298;BME280;14738;42.668;23.250;2023-11-19T06:52:02;48561.03;;;-141.90;52.86
5298;BME280;14738;42.668;23.250;2023-11-19T06:54:28;48555.09;;;-141.90;53.46
5298;BME280;14738;42.668;23.250;2023-11-19T06:56:53;48588.84;;;-141.90;52.81
5298;BME280;14738;42.668;23.250;2023-11-19T06:59:18;48555.09;;;-141.90;52.99
5298;BME280;14738;42.668;23.250;2023-11-19T07:01:44;48555.09;;;-141.90;53.37
5298;BME280;14738;42.668;23.250;2023-11-19T07:04:12;48604.72;;;-141.90;52.85
5298;BME280;14738;42.668;23.250;2023-11-19T07:06:38;48600.75;;;-141.90;52.00
5298;BME280;14738;42.668;23.250;2023-11-19T07:09:06;48568.97;;;-141.90;52.59
5298;BME280;14738;42.668;23.250;2023-11-19T07:11:36;48545.16;;;-141.90;51.55
5298;BME280;14738;42.668;23.250;2023-11-19T07:14:02;48553.09;;;-141.90;51.35
5298;BME280;14738;42.668;23.250;2023-11-19T07:16:27;48572.94;;;-141.90;50.96
5298;BME280;14738;42.668;23.250;2023-11-19T07:18:53;48584.84;;;-141.90;50.95
5298;BME280;14738;42.668;23.250;2023-11-19T07:21:19;48582.88;;;-141.90;51.30
5298;BME280;14738;42.668;23.250;2023-11-19T07:23:45;48557.06;;;-141.90;50.99
5298;BME280;14738;42.668;23.250;2023-11-19T07:26:11;48598.75;;;-141.90;51.47
5298;BME280;14738;42.668;23.250;2023-11-19T07:28:37;48572.94;;;-141.90;51.04
5298;BME280;14738;42.668;23.250;2023-11-19T07:31:03;48547.13;;;-141.90;50.71
5298;BME280;14738;42.668;23.250;2023-11-19T07:33:28;48549.13;;;-141.90;50.87
5298;BME280;14738;42.668;23.250;2023-11-19T07:35:54;48561.03;;;-141.90;50.75
5298;BME280;14738;42.668;23.250;2023-11-19T07:38:20;48539.19;;;-141.90;51.08
5298;BME280;14738;42.668;23.250;2023-11-19T07:40:45;48565.00;;;-141.90;51.65
5298;BME280;14738;42.668;23.250;2023-11-19T07:43:11;48549.13;;;-141.90;50.78
5298;BME280;14738;42.668;23.250;2023-11-19T07:45:36;48567.00;;;-141.90;50.86
5298;BME280;14738;42.668;23.250;2023-11-19T07:48:02;48570.97;;;-141.90;50.82
5298;BME280;14738;42.668;23.250;2023-11-19T07:50:28;48559.06;;;-141.90;50.50
5298;BME280;14738;42.668;23.250;2023-11-19T07:52:55;48565.00;;;-141.90;50.79
5298;BME280;14738;42.668;23.250;2023-11-19T07:55:20;48578.91;;;-141.90;49.53
5298;BME280;14738;42.668;23.250;2023-11-19T07:57:46;48543.16;;;-141.90;49.66
5298;BME280;14738;42.668;23.250;2023-11-19T08:00:12;48547.13;;;-141.90;49.81
5298;BME280;14738;42.668;23.250;2023-11-19T08:02:38;48557.06;;;-141.90;49.90
5298;BME280;14738;42.668;23.250;2023-11-19T08:05:04;48525.31;;;-141.90;50.10
5298;BME280;14738;42.668;23.250;2023-11-19T08:07:29;48565.00;;;-141.90;50.40
5298;BME280;14738;42.668;23.250;2023-11-19T08:09:55;48584.84;;;-141.90;50.44
5298;BME280;14738;42.668;23.250;2023-11-19T08:12:20;48549.13;;;-141.90;50.01
5298;BME280;14738;42.668;23.250;2023-11-19T08:14:45;48551.09;;;-141.90;49.68
5298;BME280;14738;42.668;23.250;2023-11-19T08:17:11;48584.84;;;-141.90;49.84
5298;BME280;14738;42.668;23.250;2023-11-19T08:19:36;48551.09;;;-141.90;50.16
5298;BME280;14738;42.668;23.250;2023-11-19T08:22:01;48565.00;;;-141.90;50.11
5298;BME280;14738;42.668;23.250;2023-11-19T08:24:27;48553.09;;;-141.90;50.19
5298;BME280;14738;42.668;23.250;2023-11-19T08:26:53;48572.94;;;-141.90;50.74
5298;BME280;14738;42.668;23.250;2023-11-19T08:29:19;48580.88;;;-141.90;50.13
5298;BME280;14738;42.668;23.250;2023-11-19T08:36:35;48567.00;;;-141.90;49.78
5298;BME280;14738;42.668;23.250;2023-11-19T08:39:00;48565.00;;;-141.90;49.45
5298;BME280;14738;42.668;23.250;2023-11-19T08:41:26;48574.94;;;-141.90;49.06
5298;BME280;14738;42.668;23.250;2023-11-19T08:43:52;48529.28;;;-141.90;48.94
5298;BME280;14738;42.668;23.250;2023-11-19T08:46:17;48553.09;;;-141.90;48.69
5298;BME280;14738;42.668;23.250;2023-11-19T08:48:43;48557.06;;;-141.90;48.47
5298;BME280;14738;42.668;23.250;2023-11-19T08:51:08;48574.94;;;-141.90;49.29
5298;BME280;14738;42.668;23.250;2023-11-19T08:53:34;48561.03;;;-141.90;48.84
5298;BME280;14738;42.668;23.250;2023-11-19T08:55:59;48529.28;;;-141.90;48.99
5298;BME280;14738;42.668;23.250;2023-11-19T09:00:50;48523.31;;;-141.90;48.45
5298;BME280;14738;42.668;23.250;2023-11-19T09:03:16;48529.28;;;-141.90;48.24
5298;BME280;14738;42.668;23.250;2023-11-19T09:05:41;48547.13;;;-141.90;48.47
5298;BME280;14738;42.668;23.250;2023-11-19T09:08:06;48547.13;;;-141.90;47.00
5298;BME280;14738;42.668;23.250;2023-11-19T09:10:32;48545.16;;;-141.90;48.30
5298;BME280;14738;42.668;23.250;2023-11-19T09:12:57;48537.22;;;-141.90;47.10
5298;BME280;14738;42.668;23.250;2023-11-19T09:15:23;48541.19;;;-141.90;47.38
5298;BME280;14738;42.668;23.250;2023-11-19T09:17:49;48531.25;;;-141.90;47.46
5298;BME280;14738;42.668;23.250;2023-11-19T09:20:14;48551.09;;;-141.90;46.91
5298;BME280;14738;42.668;23.250;2023-11-19T09:22:41;48529.28;;;-141.90;47.01
5298;BME280;14738;42.668;23.250;2023-11-19T09:25:07;48521.34;;;-141.90;46.65
5298;BME280;14738;42.668;23.250;2023-11-19T09:27:32;48553.09;;;-141.90;46.79
5298;BME280;14738;42.668;23.250;2023-11-19T09:29:58;48537.22;;;-141.90;47.17
5298;BME280;14738;42.668;23.250;2023-11-19T09:32:24;48547.13;;;-141.90;47.26
5298;BME280;14738;42.668;23.250;2023-11-19T09:34:49;48576.91;;;-141.90;46.99
5298;BME280;14738;42.668;23.250;2023-11-19T09:37:15;48541.19;;;-141.90;47.80
5298;BME280;14738;42.668;23.250;2023-11-19T09:42:05;48543.16;;;-141.90;48.36
5298;BME280;14738;42.668;23.250;2023-11-19T09:44:31;48539.19;;;-141.90;48.52
5298;BME280;14738;42.668;23.250;2023-11-19T09:46:58;48549.13;;;-141.90;48.38
5298;BME280;14738;42.668;23.250;2023-11-19T09:49:26;48565.00;;;-141.90;47.67
5298;BME280;14738;42.668;23.250;2023-11-19T09:51:52;48529.28;;;-141.90;47.60
5298;BME280;14738;42.668;23.250;2023-11-19T09:54:17;48551.09;;;-141.90;48.14
5298;BME280;14738;42.668;23.250;2023-11-19T09:56:43;48553.09;;;-141.90;48.19
5298;BME280;14738;42.668;23.250;2023-11-19T09:59:09;48527.28;;;-141.90;47.40
5298;BME280;14738;42.668;23.250;2023-11-19T10:01:37;48537.22;;;-141.90;47.21
5298;BME280;14738;42.668;23.250;2023-11-19T10:04:03;48541.19;;;-141.90;46.19
5298;BME280;14738;42.668;23.250;2023-11-19T10:06:29;48525.31;;;-141.90;45.61
5298;BME280;14738;42.668;23.250;2023-11-19T10:08:55;48525.31;;;-141.90;44.96
5298;BME280;14738;42.668;23.250;2023-11-19T10:11:20;48501.47;;;-141.90;44.32
5298;BME280;14738;42.668;23.250;2023-11-19T10:13:46;48529.28;;;-141.90;44.01
5298;BME280;14738;42.668;23.250;2023-11-19T10:16:13;48523.31;;;-141.90;43.86
5298;BME280;14738;42.668;23.250;2023-11-19T10:18:49;48547.13;;;-141.90;44.68
5298;BME280;14738;42.668;23.250;2023-11-19T10:21:19;48525.31;;;-141.90;44.49
5298;BME280;14738;42.668;23.250;2023-11-19T10:23:55;48529.28;;;-141.90;44.53
5298;BME280;14738;42.668;23.250;2023-11-19T10:26:26;48519.34;;;-141.90;44.72
5298;BME280;14738;42.668;23.250;2023-11-19T10:28:52;48507.44;;;-141.90;45.05
5298;BME280;14738;42.668;23.250;2023-11-19T10:31:19;48521.34;;;-141.90;44.90
5298;BME280;14738;42.668;23.250;2023-11-19T10:33:48;48541.19;;;-141.90;44.49
5298;BME280;14738;42.668;23.250;2023-11-19T10:36:13;48511.41;;;-141.90;44.38
5298;BME280;14738;42.668;23.250;2023-11-19T10:38:39;48505.44;;;-141.90;44.15
5298;BME280;14738;42.668;23.250;2023-11-19T10:41:05;48521.34;;;-141.90;44.29
5298;BME280;14738;42.668;23.250;2023-11-19T10:43:31;48509.41;;;-141.90;43.89
5298;BME280;14738;42.668;23.250;2023-11-19T10:46:13;48519.34;;;-141.90;42.47
5298;BME280;14738;42.668;23.250;2023-11-19T10:48:39;48511.41;;;-141.90;43.69
5298;BME280;14738;42.668;23.250;2023-11-19T10:51:05;48485.59;;;-141.90;43.59
5298;BME280;14738;42.668;23.250;2023-11-19T10:53:37;48519.34;;;-141.90;43.68
5298;BME280;14738;42.668;23.250;2023-11-19T10:56:06;48517.34;;;-141.90;44.04
5298;BME280;14738;42.668;23.250;2023-11-19T10:58:35;48527.28;;;-141.90;43.31
5298;BME280;14738;42.668;23.250;2023-11-19T11:01:13;48497.50;;;-141.90;43.57
5298;BME280;14738;42.668;23.250;2023-11-19T11:03:40;48537.22;;;-141.90;43.33
5298;BME280;14738;42.668;23.250;2023-11-19T11:06:05;48481.63;;;-141.90;43.46
5298;BME280;14738;42.668;23.250;2023-11-19T11:08:31;48521.34;;;-141.90;43.82
5298;BME280;14738;42.668;23.250;2023-11-19T11:10:57;48501.47;;;-141.90;43.92
5298;BME280;14738;42.668;23.250;2023-11-19T11:13:24;48525.31;;;-141.90;44.02
5298;BME280;14738;42.668;23.250;2023-11-19T11:15:51;48527.28;;;-141.90;44.14
5298;BME280;14738;42.668;23.250;2023-11-19T11:18:17;48501.47;;;-141.90;44.21
5298;BME280;14738;42.668;23.250;2023-11-19T11:20:45;48545.16;;;-141.90;44.88
5298;BME280;14738;42.668;23.250;2023-11-19T11:29:35;48525.31;;;-141.90;43.80
5298;BME280;14738;42.668;23.250;2023-11-19T11:37:30;48511.41;;;-141.90;43.29
5298;BME280;14738;42.668;23.250;2023-11-19T11:39:57;48489.56;;;-141.90;43.47
5298;BME280;14738;42.668;23.250;2023-11-19T11:50:11;48517.34;;;-141.90;42.85
5298;BME280;14738;42.668;23.250;2023-11-19T11:58:26;48523.31;;;-141.90;41.92
5298;BME280;14738;42.668;23.250;2023-11-19T12:00:52;48515.38;;;-141.90;42.81
5298;BME280;14738;42.668;23.250;2023-11-19T12:03:20;48513.38;;;-141.90;42.13
5298;BME280;14738;42.668;23.250;2023-11-19T12:05:47;48521.34;;;-141.90;42.61
5298;BME280;14738;42.668;23.250;2023-11-19T12:08:14;48555.09;;;-141.90;42.30
5298;BME280;14738;42.668;23.250;2023-11-19T12:10:49;48509.41;;;-141.90;42.11
5298;BME280;14738;42.668;23.250;2023-11-19T12:13:15;48475.66;;;-141.90;42.66
5298;BME280;14738;42.668;23.250;2023-11-19T12:18:23;48507.44;;;-141.90;42.46
5298;BME280;14738;42.668;23.250;2023-11-19T12:20:48;48501.47;;;-141.90;42.37
5298;BME280;14738;42.668;23.250;2023-11-19T12:23:14;48527.28;;;-141.90;42.22
5298;BME280;14738;42.668;23.250;2023-11-19T12:25:40;48493.53;;;-141.90;41.76
5298;BME280;14738;42.668;23.250;2023-11-19T12:28:12;48515.38;;;-141.90;42.53
5298;BME280;14738;42.668;23.250;2023-11-19T12:30:38;48523.31;;;-141.90;42.26
5298;BME280;14738;42.668;23.250;2023-11-19T12:33:10;48517.34;;;-141.90;41.96
5298;BME280;14738;42.668;23.250;2023-11-19T12:35:46;48505.44;;;-141.90;42.01
5298;BME280;14738;42.668;23.250;2023-11-19T12:38:24;48549.13;;;-141.90;43.10
5298;BME280;14738;42.668;23.250;2023-11-19T12:43:28;48511.41;;;-141.90;41.94
5298;BME280;14738;42.668;23.250;2023-11-19T12:45:53;48525.31;;;-141.90;42.38
5298;BME280;14738;42.668;23.250;2023-11-19T12:48:19;48511.41;;;-141.90;42.28
5298;BME280;14738;42.668;23.250;2023-11-19T12:50:54;48493.53;;;-141.90;42.13
5298;BME280;14738;42.668;23.250;2023-11-19T12:53:22;48537.22;;;-141.90;41.90
5298;BME280;14738;42.668;23.250;2023-11-19T12:55:48;48535.22;;;-141.90;42.80
5298;BME280;14738;42.668;23.250;2023-11-19T12:58:30;48527.28;;;-141.90;42.58
5298;BME280;14738;42.668;23.250;2023-11-19T13:01:03;48493.53;;;-141.90;43.20
5298;BME280;14738;42.668;23.250;2023-11-19T13:03:38;48525.31;;;-141.90;42.63
5298;BME280;14738;42.668;23.250;2023-11-19T13:06:08;48507.44;;;-141.90;42.18
5298;BME280;14738;42.668;23.250;2023-11-19T13:08:54;48513.38;;;-141.90;42.63
5298;BME280;14738;42.668;23.250;2023-11-19T13:11:34;48485.59;;;-141.90;42.48
5298;BME280;14738;42.668;23.250;2023-11-19T13:14:06;48489.56;;;-141.90;42.41
5298;BME280;14738;42.668;23.250;2023-11-19T13:16:35;48501.47;;;-141.90;41.93
5298;BME280;14738;42.668;23.250;2023-11-19T13:19:01;48513.38;;;-141.90;41.53
5298;BME280;14738;42.668;23.250;2023-11-19T13:21:26;48509.41;;;-141.90;41.49
5298;BME280;14738;42.668;23.250;2023-11-19T13:23:52;48491.56;;;-141.90;41.18
5298;BME280;14738;42.668;23.250;2023-11-19T13:26:17;48525.31;;;-141.90;41.25